createdAt,value
2018-01-12T00:02:18.552Z,94.20
2018-01-12T00:04:45.998Z,94.20
2018-01-12T00:07:13.468Z,94.20
2018-01-12T00:09:40.906Z,94.20
2018-01-12T00:12:08.596Z,94.20
2018-01-12T00:14:36.042Z,94.20
2018-01-12T00:17:03.499Z,94.20
2018-01-12T00:19:30.953Z,94.20
2018-01-12T00:21:58.376Z,94.20
2018-01-12T00:24:26.592Z,94.20
2018-01-12T00:26:54.350Z,94.20
2018-01-12T00:29:21.784Z,94.50
2018-01-12T00:31:49.252Z,94.20
2018-01-12T00:34:16.696Z,94.20
2018-01-12T00:36:44.180Z,94.20
2018-01-12T00:39:11.616Z,94.20
2018-01-12T00:41:39.312Z,94.20
2018-01-12T00:44:06.777Z,94.20
2018-01-12T00:46:34.224Z,94.20
2018-01-12T00:49:01.660Z,94.20
2018-01-12T00:51:29.092Z,94.20
2018-01-12T00:53:57.288Z,94.20
2018-01-12T00:56:24.968Z,94.20
2018-01-12T00:58:52.400Z,94.20
2018-01-12T01:01:19.895Z,94.20
2018-01-12T01:03:47.644Z,94.10
2018-01-12T01:06:15.076Z,94.20
2018-01-12T01:08:42.558Z,94.20
2018-01-12T01:11:10.005Z,94.50
2018-01-12T01:13:37.473Z,94.20
2018-01-12T01:16:04.900Z,94.20
2018-01-12T01:18:32.592Z,94.20
2018-01-12T01:21:00.023Z,94.10
2018-01-12T01:23:27.461Z,94.10
2018-01-12T01:25:55.676Z,94.10
2018-01-12T01:28:23.113Z,94.10
2018-01-12T01:30:50.540Z,94.10
2018-01-12T01:33:19.084Z,94.10
2018-01-12T01:35:46.533Z,94.10
2018-01-12T01:38:13.968Z,94.10
2018-01-12T01:40:41.408Z,94.10
2018-01-12T01:43:08.905Z,94.10
2018-01-12T01:45:36.336Z,94.10
2018-01-12T01:48:04.126Z,94.10
2018-01-12T01:50:31.582Z,94.10
2018-01-12T01:52:59.019Z,94.10
2018-01-12T01:55:26.513Z,94.10
2018-01-12T01:57:53.951Z,94.10
2018-01-12T02:00:21.413Z,94.10
2018-01-12T02:02:49.177Z,94.10
2018-01-12T02:05:16.633Z,94.10
2018-01-12T02:07:44.092Z,94.10
2018-01-12T02:10:11.537Z,94.10
2018-01-12T02:12:38.964Z,94.10
2018-01-12T02:15:07.171Z,94.10
2018-01-12T02:17:34.984Z,94.10
2018-01-12T02:20:02.467Z,94.10
2018-01-12T02:22:29.856Z,94.10
2018-01-12T02:24:57.305Z,94.10
2018-01-12T02:27:24.732Z,94.10
2018-01-12T02:29:52.936Z,94.00
2018-01-12T02:32:20.406Z,94.00
2018-01-12T02:34:47.860Z,94.00
2018-01-12T02:37:15.320Z,94.00
2018-01-12T02:39:43.084Z,94.00
2018-01-12T02:42:10.513Z,94.10
2018-01-12T02:44:37.996Z,94.00
2018-01-12T02:47:05.450Z,94.00
2018-01-12T02:49:32.921Z,94.00
2018-01-12T02:52:00.348Z,94.00
2018-01-12T02:54:28.137Z,94.00
2018-01-12T02:56:55.594Z,94.00
2018-01-12T02:59:23.025Z,94.00
2018-01-12T03:01:50.508Z,94.00
2018-01-12T03:04:17.937Z,94.00
2018-01-12T03:06:45.372Z,94.00
2018-01-12T03:09:13.576Z,94.00
2018-01-12T03:11:41.055Z,94.00
2018-01-12T03:14:08.510Z,94.00
2018-01-12T03:16:35.952Z,94.00
2018-01-12T03:19:03.425Z,94.00
2018-01-12T03:21:30.869Z,94.00
2018-01-12T03:23:58.642Z,94.00
2018-01-12T03:26:26.080Z,94.00
2018-01-12T03:28:53.508Z,94.00
2018-01-12T03:31:21.727Z,94.00
2018-01-12T03:33:49.140Z,94.00
2018-01-12T03:36:17.335Z,94.00
2018-01-12T03:38:45.026Z,94.00
2018-01-12T03:41:12.470Z,94.00
2018-01-12T03:43:39.892Z,94.00
2018-01-12T03:46:08.416Z,94.00
2018-01-12T03:48:35.890Z,94.00
2018-01-12T03:51:03.344Z,94.30
2018-01-12T03:53:30.904Z,94.00
2018-01-12T03:55:58.328Z,94.00
2018-01-12T03:58:25.753Z,94.00
2018-01-12T04:00:54.197Z,94.00
2018-01-12T04:03:21.653Z,93.90
2018-01-12T04:05:49.091Z,93.90
2018-01-12T04:08:16.532Z,93.90
2018-01-12T04:10:44.021Z,94.00
2018-01-12T04:13:11.451Z,93.90
2018-01-12T04:15:39.232Z,93.90
2018-01-12T04:18:06.664Z,93.90
2018-01-12T04:20:34.088Z,93.90
2018-01-12T04:23:01.615Z,93.90
2018-01-12T04:25:29.072Z,93.90
2018-01-12T04:27:56.523Z,93.90
2018-01-12T04:30:24.285Z,94.20
2018-01-12T04:32:51.740Z,93.90
2018-01-12T04:35:19.181Z,93.90
2018-01-12T04:37:46.620Z,93.90
2018-01-12T04:40:14.053Z,93.90
2018-01-12T04:42:42.260Z,94.00
2018-01-12T04:45:09.930Z,93.90
2018-01-12T04:47:37.408Z,93.90
2018-01-12T04:50:04.836Z,93.90
2018-01-12T04:52:32.320Z,93.90
2018-01-12T04:54:59.780Z,93.90
2018-01-12T04:57:27.210Z,93.90
2018-01-12T04:59:54.708Z,93.90
2018-01-12T05:02:22.132Z,93.90
2018-01-12T05:04:49.608Z,93.90
2018-01-12T05:07:17.272Z,93.90
2018-01-12T05:09:44.732Z,93.90
2018-01-12T05:12:12.156Z,93.90
2018-01-12T05:14:39.600Z,93.90
2018-01-12T05:17:07.818Z,93.90
2018-01-12T05:19:35.247Z,93.90
2018-01-12T05:22:02.936Z,93.90
2018-01-12T05:24:30.368Z,93.90
2018-01-12T05:26:57.854Z,94.20
2018-01-12T05:29:25.297Z,94.00
2018-01-12T05:31:52.728Z,93.90
2018-01-12T05:34:20.166Z,94.00
2018-01-12T05:36:48.392Z,93.80
2018-01-12T05:39:15.873Z,93.90
2018-01-12T05:41:43.408Z,93.90
2018-01-12T05:44:10.859Z,93.90
2018-01-12T05:46:38.290Z,93.90
2018-01-12T05:49:06.492Z,93.90
2018-01-12T05:51:33.942Z,94.20
2018-01-12T05:54:01.368Z,94.00
2018-01-12T05:56:29.560Z,93.90
2018-01-12T05:58:57.320Z,94.00
2018-01-12T06:01:36.667Z,93.90
2018-01-12T06:04:15.942Z,93.90
2018-01-12T06:06:43.376Z,93.90
2018-01-12T06:09:10.806Z,93.90
2018-01-12T06:11:38.600Z,93.90
2018-01-12T06:14:06.062Z,93.90
2018-01-12T06:16:33.521Z,93.90
2018-01-12T06:19:01.073Z,93.90
2018-01-12T06:21:28.507Z,93.90
2018-01-12T06:23:55.988Z,93.90
2018-01-12T06:26:23.450Z,94.00
2018-01-12T06:28:50.881Z,94.00
2018-01-12T06:31:18.360Z,94.00
2018-01-12T06:33:46.124Z,94.00
2018-01-12T06:36:13.581Z,94.00
2018-01-12T06:38:41.040Z,94.00
2018-01-12T06:41:08.492Z,94.00
2018-01-12T06:43:35.925Z,94.00
2018-01-12T06:46:03.412Z,94.00
2018-01-12T06:48:31.183Z,94.00
2018-01-12T06:50:58.622Z,94.00
2018-01-12T06:53:26.057Z,94.00
2018-01-12T06:55:54.367Z,94.00
2018-01-12T06:58:21.800Z,94.00
2018-01-12T07:00:49.240Z,94.00
2018-01-12T07:03:17.458Z,94.00
2018-01-12T07:05:44.912Z,94.00
2018-01-12T07:08:12.372Z,93.90
2018-01-12T07:10:40.137Z,93.90
2018-01-12T07:13:07.576Z,93.90
2018-01-12T07:15:35.004Z,93.90
2018-01-12T07:18:03.323Z,93.90
2018-01-12T07:20:42.572Z,93.90
2018-01-12T07:23:21.896Z,93.90
2018-01-12T07:25:49.345Z,93.90
2018-01-12T07:28:16.817Z,93.90
2018-01-12T07:30:44.266Z,93.90
2018-01-12T07:33:11.696Z,93.90
2018-01-12T07:35:39.183Z,93.90
2018-01-12T07:38:06.641Z,93.90
2018-01-12T07:40:34.069Z,93.90
2018-01-12T07:43:01.504Z,93.90
2018-01-12T07:45:29.731Z,93.90
2018-01-12T07:47:57.231Z,93.90
2018-01-12T07:50:24.623Z,93.90
2018-01-12T07:52:57.832Z,93.90
2018-01-12T07:55:25.284Z,93.90
2018-01-12T07:57:52.734Z,93.90
2018-01-12T08:00:25.916Z,93.90
2018-01-12T08:02:58.995Z,93.90
2018-01-12T08:05:26.468Z,93.90
2018-01-12T08:07:53.942Z,93.90
2018-01-12T08:10:21.404Z,93.90
2018-01-12T08:12:48.848Z,94.00
2018-01-12T08:15:16.317Z,93.90
2018-01-12T08:17:43.759Z,94.00
2018-01-12T08:20:11.233Z,94.00
2018-01-12T08:22:38.690Z,93.90
2018-01-12T08:25:06.151Z,93.90
2018-01-12T08:27:33.710Z,93.90
2018-01-12T08:30:01.156Z,93.90
2018-01-12T08:32:28.584Z,93.90
2018-01-12T08:34:56.072Z,93.90
2018-01-12T08:37:23.533Z,94.00
2018-01-12T08:39:50.963Z,94.00
2018-01-12T08:42:18.652Z,94.00
2018-01-12T08:44:46.084Z,94.00
2018-01-12T08:47:13.515Z,94.00
2018-01-12T08:49:41.832Z,94.00
2018-01-12T08:52:09.272Z,94.00
2018-01-12T08:54:36.752Z,94.00
2018-01-12T08:57:04.426Z,94.10
2018-01-12T08:59:31.861Z,94.10
2018-01-12T09:01:59.292Z,94.10
2018-01-12T09:04:26.791Z,94.10
2018-01-12T09:06:54.264Z,94.10
2018-01-12T09:09:21.680Z,94.10
2018-01-12T09:11:49.464Z,94.10
2018-01-12T09:14:28.737Z,94.10
2018-01-12T09:16:56.265Z,94.10
2018-01-12T09:19:29.376Z,94.10
2018-01-12T09:21:56.819Z,94.10
2018-01-12T09:24:24.252Z,94.20
2018-01-12T09:26:51.715Z,94.20
2018-01-12T09:29:19.140Z,94.20
2018-01-12T09:31:51.443Z,94.20
2018-01-12T09:34:30.780Z,94.20
2018-01-12T09:36:58.240Z,94.20
2018-01-12T09:39:37.636Z,94.20
2018-01-12T09:42:05.849Z,94.30
2018-01-12T09:44:33.268Z,94.20
2018-01-12T09:47:13.429Z,94.30
2018-01-12T09:49:49.424Z,94.30
2018-01-12T09:52:16.866Z,94.30
2018-01-12T09:54:44.336Z,94.30
2018-01-12T09:57:11.792Z,94.20
2018-01-12T09:59:43.947Z,94.30
2018-01-12T10:02:11.416Z,94.30
2018-01-12T10:04:38.876Z,94.30
2018-01-12T10:07:16.912Z,94.30
2018-01-12T10:09:47.112Z,94.30
2018-01-12T10:12:14.569Z,94.30
2018-01-12T10:14:42.011Z,94.30
2018-01-12T10:17:09.440Z,94.30
2018-01-12T10:22:30.596Z,94.30
2018-01-12T10:24:58.062Z,94.30
2018-01-12T10:27:25.516Z,94.30
2018-01-12T10:29:57.779Z,94.30
2018-01-12T10:32:26.151Z,94.30
2018-01-12T10:35:05.607Z,94.30
2018-01-12T10:37:33.116Z,94.20
2018-01-12T10:40:01.316Z,94.20
2018-01-12T10:42:28.888Z,94.20
2018-01-12T10:44:56.340Z,94.20
2018-01-12T10:47:26.384Z,94.20
2018-01-12T10:53:05.436Z,94.10
2018-01-12T10:55:33.205Z,94.10
2018-01-12T10:58:00.744Z,94.10
2018-01-12T11:00:32.016Z,94.10
2018-01-12T11:02:59.467Z,94.10
2018-01-12T11:05:26.892Z,94.10
2018-01-12T11:07:54.331Z,94.10
2018-01-12T11:10:22.013Z,94.10
2018-01-12T11:12:49.421Z,94.10
2018-01-12T11:15:16.856Z,94.10
2018-01-12T11:17:44.288Z,94.10
2018-01-12T11:20:11.729Z,94.00
2018-01-12T11:22:39.144Z,94.00
2018-01-12T11:25:06.579Z,94.00
2018-01-12T11:27:34.007Z,94.00
2018-01-12T11:30:01.428Z,93.90
2018-01-12T11:32:29.756Z,93.90
2018-01-12T11:34:57.207Z,93.90
2018-01-12T11:37:24.789Z,93.80
2018-01-12T11:39:52.324Z,93.80
2018-01-12T11:42:19.760Z,93.70
2018-01-12T11:44:47.261Z,93.80
2018-01-12T11:47:15.002Z,93.70
2018-01-12T11:49:42.451Z,93.70
2018-01-12T11:52:09.892Z,93.70
2018-01-12T11:54:37.372Z,93.60
2018-01-12T11:57:04.808Z,93.60
2018-01-12T11:59:32.239Z,93.50
2018-01-12T12:02:00.437Z,93.80
2018-01-12T12:04:27.868Z,93.50
2018-01-12T12:06:56.096Z,93.80
2018-01-12T12:09:23.552Z,93.50
2018-01-12T12:11:51.021Z,93.50
2018-01-12T12:14:18.447Z,93.40
2018-01-12T12:16:45.919Z,93.40
2018-01-12T12:19:13.356Z,93.30
2018-01-12T12:21:40.835Z,93.30
2018-01-12T12:24:08.276Z,93.20
2018-01-12T12:26:35.704Z,93.10
2018-01-12T12:29:03.929Z,93.00
2018-01-12T12:31:31.386Z,93.00
2018-01-12T12:33:58.832Z,93.00
2018-01-12T12:36:26.276Z,93.00
2018-01-12T12:38:53.712Z,93.00
2018-01-12T12:41:21.923Z,93.20
2018-01-12T12:43:49.393Z,92.90
2018-01-12T12:46:17.145Z,92.90
2018-01-12T12:48:44.572Z,92.90
2018-01-12T12:51:12.062Z,92.80
2018-01-12T12:53:39.536Z,92.80
2018-01-12T12:56:07.001Z,92.70
2018-01-12T12:58:34.429Z,92.70
2018-01-12T13:01:01.902Z,92.70
2018-01-12T13:03:29.332Z,92.70
2018-01-12T13:05:56.764Z,92.70
2018-01-12T13:08:24.992Z,92.50
2018-01-12T13:10:52.440Z,92.50
2018-01-12T13:13:19.876Z,92.50
2018-01-12T13:15:47.353Z,92.40
2018-01-12T13:18:14.843Z,92.50
2018-01-12T13:20:42.267Z,92.50
2018-01-12T13:23:09.762Z,92.50
2018-01-12T13:25:37.143Z,92.50
2018-01-12T13:28:04.580Z,92.50
2018-01-12T13:30:32.816Z,92.70
2018-01-12T13:33:00.386Z,92.50
2018-01-12T13:35:27.851Z,92.40
2018-01-12T13:37:55.298Z,92.40
2018-01-12T13:40:22.762Z,92.40
2018-01-12T13:42:50.193Z,92.30
2018-01-12T13:45:17.625Z,92.30
2018-01-12T13:47:45.057Z,92.30
2018-01-12T13:50:13.281Z,92.30
2018-01-12T13:52:40.692Z,92.30
2018-01-12T13:55:08.920Z,92.20
2018-01-12T13:57:36.376Z,92.20
2018-01-12T14:00:03.882Z,92.20
2018-01-12T14:02:32.112Z,92.50
2018-01-12T14:04:59.546Z,92.10
2018-01-12T14:07:27.006Z,92.10
2018-01-12T14:09:55.299Z,92.10
2018-01-12T14:12:22.736Z,92.10
2018-01-12T14:14:50.177Z,92.00
2018-01-12T14:17:18.382Z,92.00
2018-01-12T14:19:45.848Z,92.00
2018-01-12T14:22:13.295Z,92.00
2018-01-12T14:24:40.760Z,92.00
2018-01-12T14:27:08.188Z,92.00
2018-01-12T14:29:35.677Z,92.00
2018-01-12T14:32:03.129Z,92.00
2018-01-12T14:34:30.536Z,92.00
2018-01-12T14:36:58.760Z,92.00
2018-01-12T14:39:26.189Z,92.00
2018-01-12T14:41:53.620Z,92.00
2018-01-12T14:44:21.839Z,92.00
2018-01-12T14:46:49.256Z,92.00
2018-01-12T14:49:17.456Z,92.00
2018-01-12T14:51:44.936Z,92.00
2018-01-12T14:54:12.391Z,92.00
2018-01-12T14:56:39.845Z,92.00
2018-01-12T14:59:07.308Z,92.00
2018-01-12T15:01:34.768Z,92.00
2018-01-12T15:04:02.236Z,92.00
2018-01-12T15:06:29.996Z,92.00
2018-01-12T15:08:57.428Z,92.00
2018-01-12T15:11:24.912Z,92.00
2018-01-12T15:13:52.355Z,92.00
2018-01-12T15:16:19.816Z,92.10
2018-01-12T15:18:47.235Z,92.10
2018-01-12T15:21:15.678Z,92.20
2018-01-12T15:23:43.103Z,92.20
2018-01-12T15:26:10.531Z,92.20
2018-01-12T15:28:39.098Z,92.20
2018-01-12T15:31:06.513Z,92.20
2018-01-12T15:33:33.968Z,92.20
2018-01-12T15:36:01.417Z,92.20
2018-01-12T15:38:28.844Z,92.20
2018-01-12T15:40:57.056Z,92.20
2018-01-12T15:43:24.520Z,92.20
2018-01-12T15:45:51.954Z,92.20
2018-01-12T15:48:19.384Z,92.20
2018-01-12T15:50:47.590Z,92.60
2018-01-12T15:53:15.049Z,92.30
2018-01-12T15:55:42.516Z,92.30
2018-01-12T15:58:09.976Z,92.30
2018-01-12T16:00:37.530Z,92.20
2018-01-12T16:03:05.718Z,92.20
2018-01-12T16:05:33.156Z,92.20
2018-01-12T16:08:00.640Z,92.20
2018-01-12T16:10:28.100Z,92.20
2018-01-12T16:12:55.640Z,92.20
2018-01-12T16:15:23.076Z,92.20
2018-01-12T16:17:51.288Z,92.10
2018-01-12T16:20:18.728Z,92.10
2018-01-12T16:22:46.214Z,92.10
2018-01-12T16:25:13.648Z,92.20
2018-01-12T16:27:41.084Z,92.40
2018-01-12T16:30:09.292Z,92.20
2018-01-12T16:32:36.789Z,92.10
2018-01-12T16:35:04.199Z,92.10
2018-01-12T16:37:31.624Z,92.20
2018-01-12T16:39:59.933Z,92.10
2018-01-12T16:42:27.348Z,92.10
2018-01-12T16:44:54.792Z,92.10
2018-01-12T16:47:22.237Z,92.10
2018-01-12T16:49:49.682Z,92.10
2018-01-12T16:52:17.096Z,92.00
2018-01-12T16:54:44.623Z,92.00
2018-01-12T16:57:12.343Z,92.00
2018-01-12T16:59:39.779Z,91.80
2018-01-12T17:02:07.256Z,92.00
2018-01-12T17:04:34.724Z,92.00
2018-01-12T17:07:02.152Z,92.00
2018-01-12T17:09:29.637Z,92.00
2018-01-12T17:11:57.083Z,92.00
2018-01-12T17:14:25.275Z,92.00
2018-01-12T17:16:52.719Z,92.00
2018-01-12T17:19:20.203Z,92.00
2018-01-12T17:21:47.831Z,92.00
2018-01-12T17:24:15.294Z,92.10
2018-01-12T17:26:42.757Z,92.10
2018-01-12T17:29:10.189Z,92.10
2018-01-12T17:31:37.670Z,92.10
2018-01-12T17:34:05.171Z,92.10
2018-01-12T17:36:32.627Z,92.20
2018-01-12T17:39:00.144Z,92.20
2018-01-12T17:41:27.914Z,92.20
2018-01-12T17:43:55.340Z,92.30
2018-01-12T17:46:22.819Z,92.30
2018-01-12T17:48:50.275Z,92.30
2018-01-12T17:51:17.708Z,92.40
2018-01-12T17:53:45.192Z,92.40
2018-01-12T17:56:12.648Z,92.40
2018-01-12T17:58:40.108Z,92.40
2018-01-12T18:01:07.545Z,92.50
2018-01-12T18:03:35.329Z,92.50
2018-01-12T18:06:02.784Z,92.50
2018-01-12T18:08:30.215Z,92.60
2018-01-12T18:10:57.656Z,92.60
2018-01-12T18:13:26.796Z,92.60
2018-01-12T18:15:54.297Z,92.60
2018-01-12T18:18:21.730Z,92.60
2018-01-12T18:20:49.264Z,92.70
2018-01-12T18:23:16.743Z,92.60
2018-01-12T18:25:44.132Z,92.60
2018-01-12T18:28:12.352Z,92.60
2018-01-12T18:30:39.812Z,92.60
2018-01-12T18:33:07.262Z,92.60
2018-01-12T18:35:34.723Z,92.60
2018-01-12T18:38:02.156Z,92.50
2018-01-12T18:40:30.455Z,92.50
2018-01-12T18:42:57.884Z,92.50
2018-01-12T18:45:25.318Z,92.50
2018-01-12T18:47:53.552Z,92.50
2018-01-12T18:50:20.980Z,92.50
2018-01-12T18:52:48.415Z,92.50
2018-01-12T18:55:16.681Z,92.50
2018-01-12T18:57:44.876Z,92.60
2018-01-12T19:00:13.073Z,92.50
2018-01-12T19:02:40.518Z,92.50
2018-01-12T19:05:08.000Z,92.50
2018-01-12T19:07:35.474Z,92.50
2018-01-12T19:10:02.905Z,92.60
2018-01-12T19:12:30.324Z,92.60
2018-01-12T19:14:58.520Z,92.60
2018-01-12T19:17:25.969Z,92.50
2018-01-12T19:19:54.187Z,92.60
2018-01-12T19:22:21.632Z,92.50
2018-01-12T19:24:49.064Z,92.50
2018-01-12T19:27:16.528Z,92.60
2018-01-12T19:29:43.955Z,92.60
2018-01-12T19:32:11.466Z,92.60
2018-01-12T19:34:38.928Z,92.60
2018-01-12T19:37:06.360Z,92.60
2018-01-12T19:39:34.157Z,92.60
2018-01-12T19:42:01.568Z,92.60
2018-01-12T19:44:29.000Z,92.50
2018-01-12T19:46:56.516Z,92.50
2018-01-12T19:49:23.963Z,92.50
2018-01-12T19:51:51.396Z,92.50
2018-01-12T19:54:19.091Z,92.50
2018-01-12T19:56:46.524Z,92.50
2018-01-12T19:59:14.006Z,92.50
2018-01-12T20:01:41.768Z,92.50
2018-01-12T20:04:09.209Z,92.50
2018-01-12T20:06:36.632Z,92.50
2018-01-12T20:09:05.095Z,92.70
2018-01-12T20:11:32.504Z,92.50
2018-01-12T20:13:59.944Z,92.50
2018-01-12T20:16:28.462Z,92.50
2018-01-12T20:18:55.888Z,92.50
2018-01-12T20:21:23.404Z,92.50
2018-01-12T20:23:51.140Z,92.60
2018-01-12T20:26:18.572Z,92.60
2018-01-12T20:28:46.006Z,92.50
2018-01-12T20:31:14.552Z,92.60
2018-01-12T20:33:41.992Z,92.60
2018-01-12T20:36:09.428Z,92.60
2018-01-12T20:38:37.102Z,92.60
2018-01-12T20:41:04.570Z,92.60
2018-01-12T20:43:31.999Z,92.60
2018-01-12T20:45:59.789Z,92.60
2018-01-12T20:48:27.248Z,92.60
2018-01-12T20:50:54.680Z,92.60
2018-01-12T20:53:22.361Z,92.50
2018-01-12T20:55:49.788Z,92.50
2018-01-12T20:58:17.240Z,92.50
2018-01-12T21:00:45.551Z,92.50
2018-01-12T21:03:12.984Z,92.50
2018-01-12T21:05:40.415Z,92.50
2018-01-12T21:08:08.614Z,92.50
2018-01-12T21:10:36.111Z,92.50
2018-01-12T21:13:03.539Z,92.50
2018-01-12T21:15:31.224Z,92.50
2018-01-12T21:17:58.676Z,92.50
2018-01-12T21:20:26.174Z,92.50
2018-01-12T21:22:53.617Z,92.50
2018-01-12T21:25:21.155Z,92.60
2018-01-12T21:27:48.613Z,92.60
2018-01-12T21:30:16.376Z,92.60
2018-01-12T21:32:43.840Z,92.50
2018-01-12T21:35:11.311Z,92.60
2018-01-12T21:37:38.864Z,92.60
2018-01-12T21:40:06.312Z,92.60
2018-01-12T21:42:33.744Z,92.60
2018-01-12T21:45:01.524Z,92.60
2018-01-12T21:47:28.948Z,92.60
2018-01-12T21:49:56.379Z,92.60
2018-01-12T21:52:24.923Z,92.60
2018-01-12T21:54:52.372Z,92.60
2018-01-12T21:57:19.810Z,92.60
2018-01-12T21:59:47.341Z,92.60
2018-01-12T22:02:15.603Z,92.70
2018-01-12T22:04:43.031Z,92.70
2018-01-12T22:07:10.493Z,92.70
2018-01-12T22:09:37.916Z,92.70
2018-01-12T22:12:05.406Z,92.70
2018-01-12T22:14:33.164Z,92.70
2018-01-12T22:17:00.592Z,92.70
2018-01-12T22:19:28.780Z,92.70
2018-01-12T22:21:56.212Z,92.70
2018-01-12T22:24:24.442Z,92.70
2018-01-12T22:26:51.881Z,92.70
2018-01-12T22:29:19.340Z,92.70
2018-01-12T22:31:46.777Z,92.70
2018-01-12T22:34:14.216Z,92.70
2018-01-12T22:36:42.419Z,92.70
2018-01-12T22:39:09.877Z,92.70
2018-01-12T22:41:37.276Z,92.70
2018-01-12T22:44:05.018Z,92.70
2018-01-12T22:46:32.432Z,92.70
2018-01-12T22:48:59.917Z,92.70
2018-01-12T22:51:27.399Z,92.70
2018-01-12T22:53:54.891Z,92.70
2018-01-12T22:56:23.084Z,92.70
2018-01-12T22:58:50.994Z,92.70
2018-01-12T23:01:19.262Z,92.70
2018-01-12T23:03:46.684Z,92.70
2018-01-12T23:06:14.212Z,92.70
2018-01-12T23:08:41.736Z,92.70
2018-01-12T23:11:09.174Z,92.60
2018-01-12T23:13:36.944Z,92.60
2018-01-12T23:16:04.424Z,92.60
2018-01-12T23:18:31.853Z,92.60
2018-01-12T23:20:59.318Z,92.60
2018-01-12T23:23:26.748Z,92.70
2018-01-12T23:25:54.254Z,92.70
2018-01-12T23:28:21.677Z,92.60
2018-01-12T23:30:49.168Z,92.60
2018-01-12T23:33:16.577Z,92.70
2018-01-12T23:35:44.016Z,92.70
2018-01-12T23:38:12.211Z,92.70
2018-01-12T23:40:39.640Z,92.70
2018-01-12T23:43:07.860Z,92.70
2018-01-12T23:45:35.335Z,92.70
2018-01-12T23:48:02.785Z,92.70
2018-01-12T23:50:30.238Z,93.00
2018-01-12T23:52:57.667Z,92.70
2018-01-12T23:55:25.120Z,92.70
2018-01-12T23:57:53.323Z,92.80
